Time;durP1;ratioP1;P1;durP2;ratioP2;P2;SDS_P1;SDS_P2;PMS_P1;PMS_P2;Temp;Humidity;BMP_temperature;BMP_pressure;BME280_temperature;BME280_humidity;BME280_pressure;Samples;Min_cycle;Max_cycle;Signal;HPM_P1;HPM_P2
2023/05/23 00:00:14;;;;;;;4.57;0.90;;;14.30;99.90;;;;;;7401072;19;19994;-80
2023/05/23 00:02:43;;;;;;;0.40;0.30;;;14.10;99.90;;;;;;7401437;19;19915;-81
2023/05/23 00:05:14;;;;;;;2.45;1.65;;;14.30;99.90;;;;;;7400620;19;19919;-81
2023/05/23 00:07:45;;;;;;;2.50;1.20;;;14.30;99.90;;;;;;7399056;19;20364;-80
2023/05/23 00:10:15;;;;;;;0.10;0.10;;;14.30;99.90;;;;;;7400920;19;19925;-81
2023/05/23 00:12:46;;;;;;;0.68;0.68;;;14.20;99.90;;;;;;7400795;19;19932;-81
2023/05/23 00:15:16;;;;;;;0.65;0.30;;;14.30;99.90;;;;;;7400681;19;19930;-81
2023/05/23 00:17:45;;;;;;;1.20;1.00;;;14.30;99.90;;;;;;7400715;19;20252;-81
2023/05/23 00:20:15;;;;;;;4.15;1.45;;;14.30;99.90;;;;;;7399421;19;19945;-80
2023/05/23 00:22:48;;;;;;;0.25;0.25;;;14.30;99.90;;;;;;7399990;19;20354;-80
2023/05/23 00:25:17;;;;;;;0.00;0.00;;;14.30;99.90;;;;;;7397966;19;20377;-81
2023/05/23 00:27:45;;;;;;;0.00;0.00;;;14.30;99.90;;;;;;7406614;19;19986;-81
2023/05/23 00:30:15;;;;;;;0.77;0.77;;;14.30;99.90;;;;;;7412602;19;19921;-81
2023/05/23 00:32:44;;;;;;;0.30;0.30;;;14.40;99.90;;;;;;7409731;19;19990;-81
2023/05/23 00:35:12;;;;;;;0.50;0.50;;;14.60;99.90;;;;;;7406941;19;19918;-80
2023/05/23 00:37:42;;;;;;;0.50;0.28;;;14.50;99.90;;;;;;7403820;19;20327;-80
2023/05/23 00:40:14;;;;;;;0.70;0.70;;;14.30;99.90;;;;;;7406809;19;20340;-81
2023/05/23 00:42:43;;;;;;;0.00;0.00;;;14.30;99.90;;;;;;7406452;19;19923;-80
2023/05/23 00:45:13;;;;;;;0.57;0.57;;;14.40;99.90;;;;;;7406899;19;19918;-80
2023/05/23 00:47:43;;;;;;;6.22;1.40;;;14.20;99.90;;;;;;7404044;19;19929;-81
2023/05/23 00:50:14;;;;;;;0.55;0.55;;;13.60;99.90;;;;;;7407186;19;19927;-80
2023/05/23 00:52:44;;;;;;;0.47;0.47;;;13.00;99.90;;;;;;7407474;19;19923;-81
2023/05/23 00:55:16;;;;;;;0.35;0.35;;;14.30;99.90;;;;;;7405887;19;20294;-81
2023/05/23 00:57:45;;;;;;;7.53;2.70;;;14.10;99.90;;;;;;7405309;19;19919;-80
2023/05/23 01:00:15;;;;;;;0.20;0.20;;;14.20;99.90;;;;;;7404313;19;20000;-81
2023/05/23 01:02:49;;;;;;;0.57;0.50;;;14.30;99.90;;;;;;7405438;19;19922;-80
2023/05/23 01:05:21;;;;;;;0.45;0.40;;;14.30;99.90;;;;;;7404992;19;19923;-81
2023/05/23 01:07:51;;;;;;;2.85;2.65;;;14.30;99.90;;;;;;7402707;19;19942;-81
2023/05/23 01:10:25;;;;;;;0.57;0.38;;;14.30;99.90;;;;;;7405929;19;19987;-80
2023/05/23 01:13:02;;;;;;;0.43;0.43;;;14.20;99.90;;;;;;7404492;19;20376;-80
2023/05/23 01:15:34;;;;;;;;;;;14.10;99.90;;;;;;7409542;19;19924;-80
2023/05/23 01:18:08;;;;;;;0.65;0.20;;;14.00;99.90;;;;;;7404875;19;20245;-81
2023/05/23 01:20:44;;;;;;;3.90;1.27;;;14.10;99.90;;;;;;7404027;19;20354;-80
2023/05/23 01:23:40;;;;;;;0.00;0.00;;;14.00;99.90;;;;;;7404020;19;19928;-80
2023/05/23 01:26:34;;;;;;;1.85;0.30;;;13.90;99.90;;;;;;7404447;19;20014;-81
2023/05/23 01:29:13;;;;;;;0.22;0.22;;;13.90;99.90;;;;;;7403364;19;19926;-81
2023/05/23 01:31:45;;;;;;;0.00;0.00;;;13.70;99.90;;;;;;7404086;19;19937;-80
2023/05/23 01:34:15;;;;;;;0.70;0.63;;;13.80;99.90;;;;;;7405191;19;19926;-80
2023/05/23 01:36:46;;;;;;;0.00;0.00;;;14.00;99.90;;;;;;7404251;19;19926;-79
2023/05/23 01:39:14;;;;;;;0.38;0.38;;;13.70;99.90;;;;;;7406752;19;19926;-81
2023/05/23 01:41:43;;;;;;;0.40;0.40;;;13.90;99.90;;;;;;7405089;19;19919;-81
2023/05/23 01:44:15;;;;;;;0.15;0.15;;;13.40;99.90;;;;;;7406110;19;19918;-81
2023/05/23 01:46:45;;;;;;;0.15;0.03;;;13.90;99.90;;;;;;7403529;19;19934;-80
2023/05/23 01:49:17;;;;;;;0.25;0.25;;;13.90;99.90;;;;;;7405186;19;19929;-81
2023/05/23 01:51:47;;;;;;;0.52;0.52;;;13.80;99.90;;;;;;7403745;19;19932;-80
2023/05/23 01:54:18;;;;;;;0.47;0.10;;;13.80;99.90;;;;;;7404872;19;19974;-80
2023/05/23 01:56:48;;;;;;;0.10;0.10;;;13.80;99.90;;;;;;7403054;19;19934;-80
2023/05/23 01:59:19;;;;;;;0.03;0.03;;;13.60;99.90;;;;;;7405148;19;19974;-81
2023/05/23 02:01:48;;;;;;;0.00;0.00;;;13.80;99.90;;;;;;7404163;19;19919;-80
2023/05/23 02:04:17;;;;;;;0.08;0.08;;;13.70;99.90;;;;;;7404739;19;19923;-80
2023/05/23 02:06:46;;;;;;;0.57;0.17;;;13.70;99.90;;;;;;7403270;19;19990;-80
2023/05/23 02:09:16;;;;;;;0.03;0.03;;;13.70;99.90;;;;;;7407290;19;20345;-81
2023/05/23 02:11:45;;;;;;;0.00;0.00;;;13.60;99.90;;;;;;7405786;19;19925;-80
2023/05/23 02:14:14;;;;;;;0.00;0.00;;;13.60;99.90;;;;;;7405769;19;20404;-81
2023/05/23 02:16:45;;;;;;;0.13;0.13;;;13.50;99.90;;;;;;7404499;19;19925;-81
2023/05/23 02:19:14;;;;;;;1.52;0.70;;;13.60;99.90;;;;;;7403573;19;19980;-80
2023/05/23 02:21:43;;;;;;;0.00;0.00;;;13.40;99.90;;;;;;7403072;19;19982;-80
2023/05/23 02:24:13;;;;;;;0.25;0.20;;;13.30;99.90;;;;;;7401820;19;19922;-81
2023/05/23 02:26:42;;;;;;;0.22;0.22;;;13.40;99.90;;;;;;7404189;19;20045;-81
2023/05/23 02:29:11;;;;;;;0.00;0.00;;;13.50;99.90;;;;;;7402483;19;19925;-81
2023/05/23 02:31:40;;;;;;;0.00;0.00;;;13.60;99.90;;;;;;7404003;19;19923;-81
2023/05/23 02:34:11;;;;;;;0.45;0.40;;;13.50;99.90;;;;;;7402720;19;19978;-81
2023/05/23 02:36:40;;;;;;;0.00;0.00;;;13.30;99.90;;;;;;7403012;19;19922;-81
2023/05/23 02:39:09;;;;;;;0.00;0.00;;;13.40;99.90;;;;;;7404302;19;19923;-81
2023/05/23 02:41:38;;;;;;;0.10;0.10;;;13.30;99.90;;;;;;7402809;19;19918;-81
2023/05/23 02:44:07;;;;;;;0.38;0.38;;;13.50;99.90;;;;;;7402959;19;20323;-81
2023/05/23 02:46:36;;;;;;;0.20;0.20;;;13.40;99.90;;;;;;7402790;19;19970;-80
2023/05/23 02:49:05;;;;;;;0.00;0.00;;;13.40;99.90;;;;;;7402363;19;20274;-81
2023/05/23 02:51:37;;;;;;;0.55;0.20;;;13.30;99.90;;;;;;7404340;19;20315;-81
2023/05/23 02:54:06;;;;;;;0.00;0.00;;;13.30;99.90;;;;;;7401999;19;19919;-81
2023/05/23 02:56:35;;;;;;;2.60;0.35;;;13.40;99.90;;;;;;7402844;19;20343;-81
2023/05/23 02:59:04;;;;;;;0.25;0.25;;;13.40;99.90;;;;;;7401648;19;19994;-80
2023/05/23 03:01:33;;;;;;;0.00;0.00;;;13.30;99.90;;;;;;7401630;19;19926;-80
2023/05/23 03:04:03;;;;;;;3.60;0.30;;;13.30;99.90;;;;;;7403345;19;20270;-81
2023/05/23 03:06:32;;;;;;;0.10;0.10;;;13.10;99.90;;;;;;7403782;19;19922;-81
2023/05/23 03:09:05;;;;;;;0.50;0.25;;;13.20;99.90;;;;;;7402579;19;19941;-81
2023/05/23 03:11:34;;;;;;;0.38;0.20;;;13.10;99.90;;;;;;7402953;19;19914;-81
2023/05/23 03:14:03;;;;;;;0.00;0.00;;;13.00;99.90;;;;;;7402951;19;19947;-81
2023/05/23 03:16:31;;;;;;;0.00;0.00;;;13.10;99.90;;;;;;7402636;19;19922;-81
2023/05/23 03:19:00;;;;;;;0.30;0.25;;;13.10;99.90;;;;;;7401718;19;19910;-81
2023/05/23 03:21:30;;;;;;;0.00;0.00;;;13.10;99.90;;;;;;7401411;19;19933;-81
2023/05/23 03:23:59;;;;;;;4.82;1.75;;;12.90;99.90;;;;;;7399906;19;19919;-81
2023/05/23 03:26:31;;;;;;;0.00;0.00;;;11.70;99.90;;;;;;7401186;19;19918;-80
2023/05/23 03:29:00;;;;;;;2.28;0.75;;;12.80;99.90;;;;;;7399628;19;19923;-81
2023/05/23 03:31:29;;;;;;;0.10;0.10;;;12.80;99.90;;;;;;7403117;19;19943;-81
2023/05/23 03:33:58;;;;;;;0.40;0.35;;;12.70;99.90;;;;;;7402260;19;19914;-81
2023/05/23 03:36:27;;;;;;;0.10;0.10;;;12.80;99.90;;;;;;7401403;19;19922;-81
2023/05/23 03:38:56;;;;;;;2.38;0.55;;;12.80;99.90;;;;;;7400367;19;19929;-81
2023/05/23 03:41:25;;;;;;;0.00;0.00;;;12.50;99.90;;;;;;7400838;19;20343;-80
2023/05/23 03:43:57;;;;;;;0.00;0.00;;;12.60;99.90;;;;;;7402078;19;20305;-80
2023/05/23 03:46:26;;;;;;;0.00;0.00;;;12.60;99.90;;;;;;7400700;19;19929;-80
2023/05/23 03:48:54;;;;;;;0.38;0.38;;;12.50;99.90;;;;;;7399733;19;19918;-80
2023/05/23 03:51:23;;;;;;;0.00;0.00;;;12.50;99.90;;;;;;7400960;19;20439;-80
2023/05/23 03:53:52;;;;;;;0.00;0.00;;;12.70;99.90;;;;;;7400606;19;19926;-80
2023/05/23 03:56:21;;;;;;;0.00;0.00;;;12.50;99.90;;;;;;7400718;19;19952;-80
2023/05/23 03:58:50;;;;;;;4.10;1.30;;;12.50;99.90;;;;;;7400974;19;19943;-80
2023/05/23 04:01:22;;;;;;;0.05;0.05;;;12.50;99.90;;;;;;7407324;19;19918;-80
2023/05/23 04:03:51;;;;;;;;;;;12.60;99.90;;;;;;7413081;19;19918;-81
2023/05/23 04:06:21;;;;;;;0.32;0.32;;;12.50;99.90;;;;;;7407416;19;19990;-81
2023/05/23 04:08:50;;;;;;;0.00;0.00;;;12.50;99.90;;;;;;7405605;19;19943;-80
2023/05/23 04:11:20;;;;;;;1.75;1.65;;;12.30;99.90;;;;;;7406875;19;19925;-81
2023/05/23 04:13:50;;;;;;;0.00;0.00;;;12.30;99.90;;;;;;7407129;19;19974;-80
2023/05/23 04:16:22;;;;;;;0.20;0.20;;;12.30;99.90;;;;;;7407800;19;19926;-80
2023/05/23 04:18:51;;;;;;;0.00;0.00;;;12.40;99.90;;;;;;7406338;19;19927;-80
2023/05/23 04:21:20;;;;;;;0.20;0.20;;;12.40;99.90;;;;;;7406127;19;19930;-80
2023/05/23 04:23:49;;;;;;;0.32;0.32;;;12.30;99.90;;;;;;7405207;19;19926;-81
2023/05/23 04:26:19;;;;;;;0.03;0.03;;;12.40;99.90;;;;;;7407229;19;19928;-81
2023/05/23 04:28:49;;;;;;;0.00;0.00;;;12.30;99.90;;;;;;7403840;19;19986;-81
2023/05/23 04:31:18;;;;;;;0.32;0.28;;;12.40;99.90;;;;;;7406579;19;19922;-80
2023/05/23 04:33:49;;;;;;;0.00;0.00;;;12.30;99.90;;;;;;7406288;19;19919;-80
2023/05/23 04:36:18;;;;;;;0.17;0.17;;;12.20;99.90;;;;;;7406397;19;20002;-80
2023/05/23 04:38:47;;;;;;;0.22;0.22;;;12.20;99.90;;;;;;7406397;19;19923;-80
2023/05/23 04:41:16;;;;;;;0.10;0.10;;;12.20;99.90;;;;;;7406891;19;20336;-80
2023/05/23 04:43:45;;;;;;;0.20;0.20;;;12.20;99.90;;;;;;7405857;19;19926;-79
2023/05/23 04:46:15;;;;;;;0.00;0.00;;;12.40;99.90;;;;;;7407150;19;19923;-80
2023/05/23 04:48:44;;;;;;;0.22;0.22;;;12.40;99.90;;;;;;7405265;19;20374;-80
2023/05/23 04:51:16;;;;;;;0.00;0.00;;;12.40;99.90;;;;;;7405826;19;20333;-80
2023/05/23 04:53:45;;;;;;;0.00;0.00;;;12.40;99.90;;;;;;7404862;19;19978;-80
2023/05/23 04:56:14;;;;;;;0.00;0.00;;;12.40;99.90;;;;;;7407620;19;19923;-80
2023/05/23 04:58:44;;;;;;;0.15;0.15;;;12.30;99.90;;;;;;7406085;19;19929;-80
2023/05/23 05:01:13;;;;;;;0.00;0.00;;;12.20;99.90;;;;;;7407700;19;19930;-79
2023/05/23 05:03:42;;;;;;;0.00;0.00;;;12.10;99.90;;;;;;7405398;19;20014;-78
2023/05/23 05:06:17;;;;;;;0.20;0.20;;;12.30;99.90;;;;;;7406640;19;19934;-79
2023/05/23 05:08:46;;;;;;;0.00;0.00;;;12.20;99.90;;;;;;7405082;19;19923;-78
2023/05/23 05:11:15;;;;;;;0.10;0.10;;;12.10;99.90;;;;;;7403837;19;19974;-79
2023/05/23 05:13:44;;;;;;;0.03;0.03;;;12.30;99.90;;;;;;7406111;19;19982;-79
2023/05/23 05:16:13;;;;;;;0.08;0.08;;;12.20;99.90;;;;;;7405667;19;19922;-78
2023/05/23 05:18:42;;;;;;;7.43;1.98;;;12.30;99.90;;;;;;7405266;19;19922;-78
2023/05/23 05:21:11;;;;;;;0.00;0.00;;;12.20;99.90;;;;;;7405292;19;20348;-79
2023/05/23 05:23:43;;;;;;;0.80;0.80;;;12.20;99.90;;;;;;7403550;19;19919;-79
2023/05/23 05:26:13;;;;;;;0.00;0.00;;;12.20;99.90;;;;;;7405583;19;19930;-79
2023/05/23 05:28:50;;;;;;;0.20;0.20;;;12.00;99.90;;;;;;7404372;19;19933;-80
2023/05/23 05:31:40;;;;;;;1.00;0.75;;;11.90;99.90;;;;;;7406821;19;19922;-80
2023/05/23 05:34:09;;;;;;;0.43;0.25;;;12.20;99.90;;;;;;7404214;19;19911;-80
2023/05/23 05:36:44;;;;;;;0.00;0.00;;;12.00;99.90;;;;;;7403120;19;19923;-80
2023/05/23 05:39:16;;;;;;;0.00;0.00;;;12.10;99.90;;;;;;7404725;19;19919;-80
2023/05/23 05:41:45;;;;;;;0.22;0.22;;;12.10;99.90;;;;;;7405112;19;19998;-80
2023/05/23 05:44:14;;;;;;;0.00;0.00;;;12.20;99.90;;;;;;7405453;19;19922;-81
2023/05/23 05:46:43;;;;;;;0.20;0.20;;;12.10;99.90;;;;;;7404161;19;19971;-80
2023/05/23 05:49:12;;;;;;;0.00;0.00;;;12.10;99.90;;;;;;7403120;19;19938;-80
2023/05/23 05:51:41;;;;;;;0.00;0.00;;;12.10;99.90;;;;;;7403449;19;20359;-81
2023/05/23 05:54:10;;;;;;;0.10;0.10;;;11.80;99.90;;;;;;7403027;19;19942;-80
2023/05/23 05:56:42;;;;;;;0.00;0.00;;;11.90;99.90;;;;;;7404229;19;19918;-80
2023/05/23 05:59:11;;;;;;;0.10;0.10;;;11.90;99.90;;;;;;7404863;19;19923;-81
2023/05/23 06:01:40;;;;;;;1.67;0.43;;;11.90;99.90;;;;;;7403948;19;19925;-81
2023/05/23 06:04:09;;;;;;;0.98;0.63;;;11.80;99.90;;;;;;7404803;19;19922;-80
2023/05/23 06:06:38;;;;;;;0.00;0.00;;;11.70;99.90;;;;;;7404234;19;19939;-79
2023/05/23 06:09:07;;;;;;;0.10;0.10;;;11.60;99.90;;;;;;7402512;19;19925;-80
2023/05/23 06:11:38;;;;;;;0.00;0.00;;;11.70;99.90;;;;;;7403858;19;19982;-80
2023/05/23 06:14:10;;;;;;;0.00;0.00;;;11.60;99.90;;;;;;7402476;19;19922;-80
2023/05/23 06:16:39;;;;;;;5.57;0.88;;;11.50;99.90;;;;;;7403318;19;20255;-79
2023/05/23 06:19:08;;;;;;;0.20;0.20;;;11.50;99.90;;;;;;7404200;19;19935;-79
2023/05/23 06:21:41;;;;;;;0.00;0.00;;;11.50;99.90;;;;;;7403178;19;19947;-79
2023/05/23 06:24:10;;;;;;;0.00;0.00;;;11.60;99.90;;;;;;7398128;19;19922;-79
2023/05/23 06:26:39;;;;;;;0.13;0.13;;;11.70;99.90;;;;;;7403468;19;19947;-80
2023/05/23 06:29:10;;;;;;;1.00;0.90;;;11.60;99.90;;;;;;7401664;19;19922;-80
2023/05/23 06:31:40;;;;;;;0.08;0.08;;;11.80;99.90;;;;;;7403989;19;20003;-80
2023/05/23 06:34:09;;;;;;;0.50;0.40;;;11.80;99.90;;;;;;7401176;19;19926;-80
2023/05/23 06:36:38;;;;;;;0.35;0.35;;;11.70;99.90;;;;;;7402639;19;20348;-80
2023/05/23 06:39:08;;;;;;;1.95;0.47;;;11.70;99.90;;;;;;7402968;19;20288;-80
2023/05/23 06:41:37;;;;;;;0.00;0.00;;;11.80;99.90;;;;;;7401925;19;19915;-80
2023/05/23 06:44:06;;;;;;;0.00;0.00;;;11.70;99.90;;;;;;7399536;19;20290;-80
2023/05/23 06:46:38;;;;;;;0.00;0.00;;;11.70;99.90;;;;;;7402669;19;19994;-80
2023/05/23 06:49:07;;;;;;;0.20;0.20;;;11.70;99.90;;;;;;7401462;19;19917;-79
2023/05/23 06:51:36;;;;;;;0.47;0.40;;;11.50;99.90;;;;;;7401892;19;19982;-80
2023/05/23 06:54:06;;;;;;;0.00;0.00;;;11.50;99.90;;;;;;7402497;19;19921;-79
2023/05/23 06:56:35;;;;;;;0.60;0.60;;;11.50;99.90;;;;;;7403886;19;20322;-80
2023/05/23 06:59:04;;;;;;;0.08;0.08;;;11.50;99.90;;;;;;7402781;19;19966;-79
2023/05/23 07:01:33;;;;;;;0.00;0.00;;;11.60;99.90;;;;;;7402818;19;19918;-79
2023/05/23 07:04:05;;;;;;;0.00;0.00;;;11.50;99.90;;;;;;7403341;19;19918;-79
2023/05/23 07:06:35;;;;;;;0.35;0.25;;;11.60;99.90;;;;;;7403042;19;19921;-79
2023/05/23 07:09:04;;;;;;;1.88;1.08;;;11.60;99.90;;;;;;7405760;19;19918;-78
2023/05/23 07:11:34;;;;;;;0.00;0.00;;;11.70;99.90;;;;;;7401627;19;19939;-79
2023/05/23 07:14:03;;;;;;;0.00;0.00;;;11.50;99.90;;;;;;7403717;19;19935;-79
2023/05/23 07:16:32;;;;;;;0.30;0.30;;;11.60;99.90;;;;;;7400196;19;20245;-79
2023/05/23 07:19:04;;;;;;;0.00;0.00;;;11.60;99.90;;;;;;7402473;19;20361;-79
2023/05/23 07:21:33;;;;;;;0.52;0.52;;;11.70;99.90;;;;;;7401509;19;20252;-79
2023/05/23 07:24:02;;;;;;;0.00;0.00;;;12.00;99.90;;;;;;7401905;19;19925;-79
2023/05/23 07:26:31;;;;;;;0.15;0.15;;;11.70;99.90;;;;;;7401950;19;19926;-79
2023/05/23 07:29:00;;;;;;;0.03;0.00;;;11.80;99.90;;;;;;7400802;19;20342;-79
2023/05/23 07:31:29;;;;;;;0.00;0.00;;;11.70;99.90;;;;;;7402236;19;19922;-79
2023/05/23 07:33:59;;;;;;;0.00;0.00;;;11.70;99.90;;;;;;7400314;19;19924;-80
2023/05/23 07:36:32;;;;;;;0.32;0.32;;;11.80;99.90;;;;;;7408993;19;19998;-79
2023/05/23 07:39:01;;;;;;;1.85;0.88;;;11.90;99.90;;;;;;7408009;19;19918;-79
2023/05/23 07:41:30;;;;;;;0.90;0.90;;;11.80;99.90;;;;;;7406103;19;19919;-79
2023/05/23 07:43:59;;;;;;;0.38;0.38;;;12.20;99.90;;;;;;7405789;19;19970;-79
2023/05/23 07:46:28;;;;;;;0.00;0.00;;;12.30;99.90;;;;;;7408070;19;19918;-79
2023/05/23 07:48:57;;;;;;;0.10;0.10;;;12.00;99.90;;;;;;7407373;19;19926;-80
2023/05/23 07:51:26;;;;;;;0.00;0.00;;;12.10;99.90;;;;;;7408237;19;19955;-79
2023/05/23 07:53:58;;;;;;;0.00;0.00;;;12.00;99.90;;;;;;7406767;19;19914;-79
2023/05/23 07:56:27;;;;;;;0.00;0.00;;;12.00;99.90;;;;;;7407311;19;19933;-79
2023/05/23 07:58:56;;;;;;;4.15;0.63;;;12.10;99.90;;;;;;7406638;19;19914;-80
2023/05/23 08:01:25;;;;;;;0.08;0.08;;;12.10;99.90;;;;;;7406642;19;19929;-80
2023/05/23 08:03:54;;;;;;;0.00;0.00;;;12.10;99.90;;;;;;7406848;19;19918;-80
2023/05/23 08:06:22;;;;;;;0.00;0.00;;;12.30;99.90;;;;;;7407475;19;19994;-79
2023/05/23 08:08:52;;;;;;;0.00;0.00;;;12.10;99.90;;;;;;7406391;19;19978;-80
2023/05/23 08:11:24;;;;;;;1.42;1.33;;;12.20;99.90;;;;;;7407163;19;20258;-79
2023/05/23 08:13:53;;;;;;;0.47;0.47;;;12.30;99.90;;;;;;7407872;19;20326;-80
2023/05/23 08:16:22;;;;;;;0.00;0.00;;;12.50;99.90;;;;;;7406890;19;20781;-79
2023/05/23 08:18:50;;;;;;;1.65;0.30;;;12.30;99.90;;;;;;7405795;19;19922;-79
2023/05/23 08:21:19;;;;;;;2.38;1.00;;;12.40;99.90;;;;;;7405986;19;20009;-79
2023/05/23 08:23:48;;;;;;;0.00;0.00;;;12.60;99.90;;;;;;7405125;19;19948;-79
2023/05/23 08:26:17;;;;;;;0.00;0.00;;;12.60;99.90;;;;;;7406485;19;20006;-79
2023/05/23 08:28:49;;;;;;;0.65;0.28;;;12.70;99.90;;;;;;7406551;19;20266;-79
2023/05/23 08:31:18;;;;;;;0.32;0.32;;;12.60;99.90;;;;;;7406645;19;19945;-80
2023/05/23 08:33:47;;;;;;;0.00;0.00;;;12.70;99.90;;;;;;7407270;19;19978;-79
2023/05/23 08:36:16;;;;;;;0.00;0.00;;;12.90;99.90;;;;;;7405140;19;19926;-79
2023/05/23 08:38:45;;;;;;;0.10;0.10;;;12.90;99.90;;;;;;7406634;19;20013;-79
2023/05/23 08:41:20;;;;;;;1.27;1.17;;;13.00;99.90;;;;;;7406668;19;19925;-80
2023/05/23 08:43:52;;;;;;;0.00;0.00;;;13.00;99.90;;;;;;7404773;19;19994;-79
2023/05/23 08:46:21;;;;;;;0.03;0.03;;;12.90;99.90;;;;;;7407790;19;19986;-80
2023/05/23 08:48:53;;;;;;;1.90;0.28;;;12.70;99.90;;;;;;7409015;19;19926;-79
2023/05/23 08:51:24;;;;;;;1.77;0.55;;;12.90;99.90;;;;;;7405808;19;19990;-80
2023/05/23 08:53:55;;;;;;;0.10;0.10;;;13.00;99.90;;;;;;7405700;19;20004;-79
2023/05/23 08:56:25;;;;;;;0.13;0.13;;;13.00;99.90;;;;;;7406164;19;19914;-80
2023/05/23 08:58:57;;;;;;;0.00;0.00;;;13.20;99.90;;;;;;7405794;19;19922;-80
2023/05/23 09:01:28;;;;;;;0.00;0.00;;;13.00;99.90;;;;;;7405167;19;19918;-80
2023/05/23 09:04:03;;;;;;;0.08;0.08;;;13.10;99.90;;;;;;7405699;19;19922;-80
2023/05/23 09:06:32;;;;;;;0.03;0.03;;;13.20;99.90;;;;;;7404605;19;19911;-80
2023/05/23 09:09:01;;;;;;;0.22;0.22;;;13.10;99.90;;;;;;7406151;19;19926;-80
2023/05/23 09:11:33;;;;;;;9.73;1.25;;;12.90;99.90;;;;;;7406889;19;20473;-79
2023/05/23 09:14:06;;;;;;;0.00;0.00;;;12.90;99.90;;;;;;7406452;19;19990;-79
2023/05/23 09:16:36;;;;;;;0.45;0.45;;;13.10;99.90;;;;;;7406190;19;19933;-80
2023/05/23 09:19:12;;;;;;;0.05;0.05;;;13.00;99.90;;;;;;7406028;19;20350;-80
2023/05/23 09:21:45;;;;;;;0.00;0.00;;;13.00;99.90;;;;;;7404443;19;19915;-80
2023/05/23 09:24:14;;;;;;;0.00;0.00;;;13.20;99.90;;;;;;7404803;19;19919;-80
2023/05/23 09:26:43;;;;;;;0.00;0.00;;;13.40;99.90;;;;;;7404232;19;19933;-80
2023/05/23 09:29:14;;;;;;;0.00;0.00;;;13.20;99.90;;;;;;7404493;19;19922;-79
2023/05/23 09:31:43;;;;;;;1.23;0.75;;;13.30;99.90;;;;;;7406302;19;20369;-80
2023/05/23 09:34:12;;;;;;;0.08;0.08;;;13.40;99.90;;;;;;7404367;19;19933;-80
2023/05/23 09:36:43;;;;;;;0.00;0.00;;;13.40;99.90;;;;;;7403302;19;19911;-80
2023/05/23 09:39:14;;;;;;;2.38;2.03;;;13.20;99.90;;;;;;7404546;19;19922;-79
2023/05/23 09:41:43;;;;;;;0.00;0.00;;;13.30;99.90;;;;;;7405482;19;19934;-80
2023/05/23 09:44:15;;;;;;;0.08;0.08;;;13.20;99.90;;;;;;7404485;19;20562;-80
2023/05/23 09:46:43;;;;;;;0.00;0.00;;;13.30;99.90;;;;;;7405499;19;19974;-80
2023/05/23 09:49:21;;;;;;;2.17;0.80;;;13.20;99.90;;;;;;7404572;19;19918;-80
2023/05/23 09:52:00;;;;;;;0.00;0.00;;;13.50;99.90;;;;;;7404070;19;19930;-80
2023/05/23 09:54:29;;;;;;;2.65;1.02;;;13.60;99.90;;;;;;7403868;19;19923;-80
2023/05/23 09:57:00;;;;;;;0.10;0.10;;;13.60;99.90;;;;;;7405254;19;19923;-80
2023/05/23 09:59:35;;;;;;;0.00;0.00;;;13.70;99.90;;;;;;7405054;19;19922;-80
2023/05/23 10:02:08;;;;;;;0.00;0.00;;;13.60;99.90;;;;;;7404626;19;20344;-80
2023/05/23 10:04:38;;;;;;;0.20;0.20;;;13.70;99.90;;;;;;7404969;19;19999;-81
2023/05/23 10:07:16;;;;;;;0.00;0.00;;;13.70;99.90;;;;;;7404857;19;19978;-80
2023/05/23 10:09:49;;;;;;;0.00;0.00;;;13.70;99.90;;;;;;7403414;19;20364;-80
2023/05/23 10:12:43;;;;;;;0.00;0.00;;;13.70;99.90;;;;;;7405242;19;19922;-80
2023/05/23 10:15:17;;;;;;;0.17;0.17;;;13.50;99.90;;;;;;7404591;19;20360;-80
2023/05/23 10:17:58;;;;;;;0.65;0.65;;;13.50;99.90;;;;;;7404612;19;19926;-80
2023/05/23 10:20:31;;;;;;;0.00;0.00;;;13.70;99.90;;;;;;7402099;19;19926;-80
2023/05/23 10:23:01;;;;;;;0.10;0.10;;;13.70;99.90;;;;;;7403286;19;19919;-80
2023/05/23 10:25:31;;;;;;;0.22;0.22;;;13.90;99.90;;;;;;7403829;19;19986;-80
2023/05/23 10:28:01;;;;;;;0.00;0.00;;;13.90;99.90;;;;;;7405516;19;19938;-80
2023/05/23 10:30:32;;;;;;;0.00;0.00;;;14.00;99.90;;;;;;7401514;19;19991;-80
2023/05/23 10:33:02;;;;;;;0.20;0.20;;;14.00;99.90;;;;;;7403207;19;20356;-80
2023/05/23 10:35:42;;;;;;;0.80;0.35;;;13.80;99.90;;;;;;7403162;19;19929;-80
2023/05/23 10:38:21;;;;;;;0.10;0.10;;;13.80;99.90;;;;;;7405883;19;19974;-79
2023/05/23 10:40:56;;;;;;;0.00;0.00;;;13.70;99.90;;;;;;7404092;19;19923;-80
2023/05/23 10:43:31;;;;;;;0.00;0.00;;;13.80;99.90;;;;;;7402586;19;19922;-80
2023/05/23 10:46:02;;;;;;;0.73;0.73;;;13.70;99.90;;;;;;7404870;19;19991;-80
2023/05/23 10:48:36;;;;;;;0.00;0.00;;;13.90;99.90;;;;;;7404394;19;20349;-81
2023/05/23 10:51:06;;;;;;;0.38;0.38;;;13.80;99.90;;;;;;7403182;19;19918;-80
2023/05/23 10:53:38;;;;;;;2.30;0.70;;;14.00;99.90;;;;;;7403353;19;20309;-80
2023/05/23 10:56:08;;;;;;;5.95;0.88;;;14.00;99.90;;;;;;7402379;19;20258;-80
2023/05/23 10:58:40;;;;;;;0.00;0.00;;;14.10;99.90;;;;;;7403417;19;20002;-80
2023/05/23 11:01:18;;;;;;;1.55;1.45;;;14.00;99.90;;;;;;7403912;19;20003;-80
2023/05/23 11:03:54;;;;;;;0.30;0.20;;;13.90;99.90;;;;;;7402689;19;19929;-79
2023/05/23 11:06:37;;;;;;;0.20;0.20;;;14.00;99.90;;;;;;7403653;19;19925;-79
2023/05/23 11:09:07;;;;;;;0.00;0.00;;;14.00;99.90;;;;;;7401476;19;20348;-80
2023/05/23 11:12:02;;;;;;;6.65;0.43;;;14.00;99.90;;;;;;7401143;19;19943;-79
2023/05/23 11:14:36;;;;;;;0.13;0.13;;;14.00;99.90;;;;;;7402530;19;20305;-80
2023/05/23 11:17:21;;;;;;;0.00;0.00;;;13.70;99.90;;;;;;7402297;19;20268;-80
2023/05/23 11:20:03;;;;;;;0.00;0.00;;;13.70;99.90;;;;;;7403206;19;20449;-79
2023/05/23 11:22:32;;;;;;;0.00;0.00;;;13.90;99.90;;;;;;7402916;19;20017;-80
2023/05/23 11:25:03;;;;;;;0.00;0.00;;;14.10;99.90;;;;;;7401190;19;19911;-80
2023/05/23 11:27:36;;;;;;;2.83;1.23;;;14.20;99.90;;;;;;7405325;19;19921;-79
2023/05/23 11:30:09;;;;;;;0.15;0.15;;;14.20;99.90;;;;;;7401997;19;20431;-80
2023/05/23 11:32:41;;;;;;;0.75;0.75;;;14.50;99.90;;;;;;7403384;19;19918;-80
2023/05/23 11:35:12;;;;;;;0.28;0.17;;;14.30;99.90;;;;;;7404219;19;20349;-80
2023/05/23 11:37:41;;;;;;;0.17;0.17;;;14.20;99.90;;;;;;7402814;19;19922;-80
2023/05/23 11:40:30;;;;;;;0.13;0.13;;;14.20;99.90;;;;;;7402495;19;19917;-80
2023/05/23 11:43:00;;;;;;;1.58;0.95;;;14.20;99.90;;;;;;7402347;19;19915;-80
2023/05/23 11:45:31;;;;;;;0.10;0.10;;;14.20;99.90;;;;;;7401889;19;19970;-80
2023/05/23 11:48:07;;;;;;;0.00;0.00;;;14.30;99.90;;;;;;7401387;19;19919;-78
2023/05/23 11:50:44;;;;;;;4.03;2.60;;;14.20;99.90;;;;;;7400910;19;20497;-78
2023/05/23 11:53:16;;;;;;;0.47;0.45;;;13.90;99.90;;;;;;7401362;19;20264;-79
2023/05/23 11:55:52;;;;;;;0.00;0.00;;;14.10;99.90;;;;;;7400938;19;19935;-80
2023/05/23 11:58:22;;;;;;;7.68;1.17;;;14.50;99.90;;;;;;7400306;19;20299;-79
2023/05/23 12:00:51;;;;;;;0.00;0.00;;;14.70;99.90;;;;;;7402235;19;19974;-80
2023/05/23 12:03:22;;;;;;;4.10;0.68;;;15.00;99.90;;;;;;7404257;19;19922;-80
2023/05/23 12:05:51;;;;;;;1.20;1.20;;;15.00;99.90;;;;;;7403856;19;19926;-78
2023/05/23 12:08:20;;;;;;;0.52;0.52;;;14.90;99.90;;;;;;7400224;19;19928;-79
2023/05/23 12:10:54;;;;;;;0.00;0.00;;;14.80;99.90;;;;;;7400949;19;19943;-80
2023/05/23 12:13:27;;;;;;;0.45;0.45;;;14.80;99.90;;;;;;7401393;19;19946;-79
2023/05/23 12:15:57;;;;;;;1.02;1.00;;;15.10;99.90;;;;;;7402759;19;19919;-79
2023/05/23 12:18:31;;;;;;;0.00;0.00;;;15.30;99.90;;;;;;7401805;19;20263;-78
2023/05/23 12:21:04;;;;;;;0.00;0.00;;;15.40;99.90;;;;;;7400395;19;19922;-78
2023/05/23 12:23:34;;;;;;;0.73;0.63;;;15.30;99.90;;;;;;7406945;19;19954;-79
2023/05/23 12:26:06;;;;;;;6.93;0.35;;;15.10;99.90;;;;;;7404318;19;20355;-79
2023/05/23 12:28:41;;;;;;;0.13;0.13;;;14.90;99.90;;;;;;7407714;19;19918;-79
2023/05/23 12:31:14;;;;;;;0.05;0.05;;;15.20;99.90;;;;;;7405389;19;19927;-79
2023/05/23 12:33:47;;;;;;;2.78;0.90;;;15.00;99.90;;;;;;7406939;19;19948;-79
2023/05/23 12:36:17;;;;;;;1.13;1.13;;;15.20;99.90;;;;;;7407170;19;19958;-79
2023/05/23 12:38:46;;;;;;;0.13;0.13;;;15.40;99.90;;;;;;7407265;19;19978;-78
2023/05/23 12:41:20;;;;;;;0.00;0.00;;;15.70;99.90;;;;;;7407078;19;19994;-78
2023/05/23 12:43:54;;;;;;;0.17;0.17;;;15.90;99.90;;;;;;7404877;19;19921;-78
2023/05/23 12:46:24;;;;;;;0.00;0.00;;;16.00;99.90;;;;;;7406408;19;19911;-79
2023/05/23 12:48:56;;;;;;;12.57;0.85;;;15.60;99.90;;;;;;7405673;19;19927;-79
2023/05/23 12:51:26;;;;;;;0.10;0.10;;;15.50;99.90;;;;;;7403337;19;19925;-78
2023/05/23 12:53:56;;;;;;;0.00;0.00;;;15.60;99.90;;;;;;7406149;19;19911;-79
2023/05/23 12:56:26;;;;;;;0.00;0.00;;;15.50;99.90;;;;;;7407154;19;19911;-79
2023/05/23 12:58:55;;;;;;;0.28;0.28;;;15.60;99.90;;;;;;7406107;19;19993;-79
2023/05/23 13:01:25;;;;;;;0.10;0.10;;;15.50;99.90;;;;;;7405023;19;20308;-79
2023/05/23 13:03:57;;;;;;;0.00;0.00;;;15.80;99.90;;;;;;7406717;19;19915;-79
2023/05/23 13:06:26;;;;;;;0.75;0.75;;;15.40;99.90;;;;;;7406556;19;19922;-80